Time;durP1;ratioP1;P1;durP2;ratioP2;P2;SDS_P1;SDS_P2;PMS_P1;PMS_P2;Temp;Humidity;BMP_temperature;BMP_pressure;BME280_temperature;BME280_humidity;BME280_pressure;Samples;Min_cycle;Max_cycle;Signal;HPM_P1;HPM_P2
2022/12/16 00:00:11;;;;;;;27.63;14.87;;;-0.60;1.00;;;;;;5034705;28;20537;-72
2022/12/16 00:02:36;;;;;;;29.30;15.40;;;-0.50;1.00;;;;;;5029725;28;20424;-72
2022/12/16 00:05:02;;;;;;;29.83;15.83;;;0.00;1.00;;;;;;5030779;28;20443;-73
2022/12/16 00:07:28;;;;;;;29.30;15.00;;;-0.60;1.00;;;;;;5029334;28;20547;-72
2022/12/16 00:09:54;;;;;;;30.10;15.77;;;-0.20;1.00;;;;;;5031486;28;20432;-73
2022/12/16 00:12:19;;;;;;;27.63;14.50;;;-0.20;1.00;;;;;;5030914;28;20300;-72
2022/12/16 00:14:44;;;;;;;28.37;15.40;;;-0.30;1.00;;;;;;5031619;28;20181;-71
2022/12/16 00:17:10;;;;;;;23.63;13.10;;;-0.60;1.00;;;;;;5025976;28;20182;-71
2022/12/16 00:19:35;;;;;;;25.90;13.87;;;-0.20;1.00;;;;;;5029263;28;20789;-71
2022/12/16 00:22:01;;;;;;;27.77;14.27;;;-0.60;1.00;;;;;;5029995;28;20170;-71
2022/12/16 00:24:27;;;;;;;26.67;14.87;;;-0.20;1.00;;;;;;5032624;28;20228;-72
2022/12/16 00:26:52;;;;;;;28.07;14.67;;;-0.10;1.00;;;;;;5029685;28;20340;-71
2022/12/16 00:29:18;;;;;;;24.23;13.03;;;-0.10;1.00;;;;;;5032801;28;20205;-71
2022/12/16 00:31:46;;;;;;;21.77;12.80;;;-0.40;1.00;;;;;;5036397;28;20648;-72
2022/12/16 00:34:13;;;;;;;26.77;14.20;;;-0.10;1.00;;;;;;5031864;28;20178;-71
2022/12/16 00:36:38;;;;;;;26.30;12.97;;;0.00;1.00;;;;;;5021884;28;20464;-70
2022/12/16 00:39:04;;;;;;;23.40;13.13;;;-0.10;1.00;;;;;;5031794;28;20549;-71
2022/12/16 00:41:29;;;;;;;25.47;13.67;;;-0.40;1.00;;;;;;5029004;28;20668;-72
2022/12/16 00:43:55;;;;;;;25.77;13.93;;;0.00;1.00;;;;;;5031773;28;20244;-71
2022/12/16 00:46:21;;;;;;;26.67;13.97;;;-0.40;1.00;;;;;;5030598;28;20178;-70
2022/12/16 00:48:46;;;;;;;27.53;13.60;;;0.00;1.00;;;;;;5028043;28;20210;-71
2022/12/16 00:51:11;;;;;;;26.23;13.10;;;-0.30;1.00;;;;;;5031199;28;20675;-71
2022/12/16 00:53:37;;;;;;;24.90;13.60;;;-0.40;1.00;;;;;;5028603;28;20200;-70
2022/12/16 00:56:13;;;;;;;28.10;14.37;;;-0.10;1.00;;;;;;5032386;28;20174;-71
2022/12/16 00:58:39;;;;;;;23.03;13.20;;;-0.40;1.00;;;;;;5027981;28;20190;-72
2022/12/16 01:01:06;;;;;;;29.20;15.30;;;-0.10;1.00;;;;;;5043136;28;20417;-71
2022/12/16 01:03:32;;;;;;;28.23;14.13;;;-0.10;1.00;;;;;;5030193;28;20445;-71
2022/12/16 01:05:57;;;;;;;26.13;13.63;;;-0.50;1.00;;;;;;5027936;28;20448;-71
2022/12/16 01:08:23;;;;;;;23.00;12.47;;;-0.50;1.00;;;;;;5030237;28;20645;-72
2022/12/16 01:10:53;;;;;;;21.20;12.40;;;-0.60;1.00;;;;;;5030813;28;20357;-71
2022/12/16 01:13:20;;;;;;;28.63;14.50;;;-0.60;1.00;;;;;;5030117;28;20590;-71
2022/12/16 01:15:45;;;;;;;27.17;12.60;;;-0.10;1.00;;;;;;5023151;28;20950;-71
2022/12/16 01:18:11;;;;;;;25.83;13.80;;;-0.20;1.00;;;;;;5029864;28;20424;-71
2022/12/16 01:20:37;;;;;;;24.50;13.20;;;-0.50;1.00;;;;;;5028322;28;20185;-73
2022/12/16 01:23:03;;;;;;;30.83;13.30;;;-0.60;1.00;;;;;;5024895;28;20202;-71
2022/12/16 01:25:29;;;;;;;25.23;13.47;;;-0.20;1.00;;;;;;5039685;28;20458;-70
2022/12/16 01:27:54;;;;;;;26.13;12.57;;;-0.60;1.00;;;;;;5026701;28;20274;-72
2022/12/16 01:30:20;;;;;;;26.00;12.93;;;-0.50;1.00;;;;;;5024533;28;20229;-70
2022/12/16 01:32:45;;;;;;;27.10;12.77;;;-0.40;1.00;;;;;;5028238;28;20275;-71
2022/12/16 01:35:12;;;;;;;24.03;13.17;;;-0.40;1.00;;;;;;5026391;28;20767;-72
2022/12/16 01:37:37;;;;;;;22.00;12.57;;;-0.20;1.00;;;;;;5018830;28;20188;-71
2022/12/16 01:40:03;;;;;;;29.40;13.00;;;-0.70;1.00;;;;;;5028896;28;20500;-74
2022/12/16 01:42:32;;;;;;;23.20;11.67;;;-0.70;1.00;;;;;;5030506;28;20212;-72
2022/12/16 01:45:23;;;;;;;22.07;13.20;;;-0.30;1.00;;;;;;5029379;28;20436;-72
2022/12/16 01:47:52;;;;;;;25.47;12.90;;;-0.80;1.00;;;;;;5025057;28;20461;-74
2022/12/16 01:50:18;;;;;;;22.20;12.70;;;-0.40;1.00;;;;;;5022573;28;20449;-72
2022/12/16 01:52:48;;;;;;;23.00;12.17;;;-0.80;1.00;;;;;;5026318;28;20424;-71
2022/12/16 01:55:31;;;;;;;22.70;12.63;;;-0.50;1.00;;;;;;5029958;28;20178;-72
2022/12/16 01:58:11;;;;;;;22.57;11.70;;;-0.90;1.00;;;;;;5030571;28;20405;-70
2022/12/16 02:00:37;;;;;;;23.40;11.60;;;-0.90;1.00;;;;;;5027029;28;20467;-71
2022/12/16 02:03:04;;;;;;;26.03;12.70;;;-0.60;1.00;;;;;;5034661;28;20424;-71
2022/12/16 02:05:30;;;;;;;23.07;10.87;;;-0.70;1.00;;;;;;5024273;28;20445;-70
2022/12/16 02:08:09;;;;;;;23.23;11.77;;;-1.00;1.00;;;;;;5020969;28;20475;-71
2022/12/16 02:10:40;;;;;;;22.13;11.40;;;-1.00;1.00;;;;;;5025699;28;21017;-73
2022/12/16 02:13:25;;;;;;;20.07;11.37;;;-1.00;1.00;;;;;;5020884;28;20437;-70
2022/12/16 02:16:08;;;;;;;22.97;11.90;;;-1.00;1.00;;;;;;5016330;28;20437;-70
2022/12/16 02:19:00;;;;;;;23.33;12.03;;;-1.00;1.00;;;;;;5029720;28;20443;-71
2022/12/16 02:21:38;;;;;;;25.23;11.67;;;-1.00;1.00;;;;;;5024092;28;20559;-71
2022/12/16 02:24:46;;;;;;;24.50;12.10;;;-1.10;1.00;;;;;;5034365;28;20435;-70
2022/12/16 02:27:37;;;;;;;23.57;12.03;;;-1.10;1.00;;;;;;5030360;28;20490;-71
2022/12/16 02:30:20;;;;;;;30.33;12.53;;;-1.20;1.00;;;;;;5029505;28;20455;-72
2022/12/16 02:33:09;;;;;;;21.40;11.40;;;-1.20;1.00;;;;;;5027657;28;20626;-70
2022/12/16 02:35:53;;;;;;;21.57;10.43;;;-1.30;1.00;;;;;;5024271;28;20928;-72
2022/12/16 02:38:27;;;;;;;22.77;11.90;;;-1.30;1.00;;;;;;5021920;28;20519;-71
2022/12/16 02:40:56;;;;;;;25.27;12.10;;;-1.30;1.00;;;;;;5022539;28;20980;-70
2022/12/16 02:43:30;;;;;;;27.97;13.40;;;-0.90;1.00;;;;;;5029897;28;20424;-72
2022/12/16 02:45:55;;;;;;;23.53;12.10;;;-0.90;1.00;;;;;;5026815;28;20888;-71
2022/12/16 02:48:21;;;;;;;20.03;11.10;;;-0.90;1.00;;;;;;5025135;28;20518;-70
2022/12/16 02:50:49;;;;;;;23.97;12.43;;;-1.30;1.00;;;;;;5026965;28;20180;-70
2022/12/16 02:53:17;;;;;;;21.73;11.07;;;-1.10;1.00;;;;;;5027755;28;20308;-71
2022/12/16 02:55:42;;;;;;;22.77;11.97;;;-1.30;1.00;;;;;;5028704;28;20432;-70
2022/12/16 02:58:13;;;;;;;22.80;11.73;;;-1.30;1.00;;;;;;5029475;28;20432;-71
2022/12/16 03:00:51;;;;;;;21.07;10.80;;;-1.20;1.00;;;;;;5041295;28;20200;-70
2022/12/16 03:03:29;;;;;;;24.00;12.03;;;-1.30;1.00;;;;;;5026520;28;20428;-71
2022/12/16 03:05:57;;;;;;;25.43;11.00;;;-1.40;1.00;;;;;;5025939;28;20459;-71
2022/12/16 03:08:37;;;;;;;17.83;10.70;;;-1.40;1.00;;;;;;5028330;28;20483;-71
2022/12/16 03:11:05;;;;;;;20.77;11.17;;;-1.50;1.00;;;;;;5026183;28;20448;-71
2022/12/16 03:13:38;;;;;;;21.80;11.63;;;-1.60;1.00;;;;;;5028775;28;20836;-71
2022/12/16 03:16:08;;;;;;;23.27;11.20;;;-1.60;1.00;;;;;;5025550;28;21169;-71
2022/12/16 03:18:36;;;;;;;20.37;10.80;;;-1.70;1.00;;;;;;5028996;28;20452;-71
2022/12/16 03:21:05;;;;;;;20.03;10.87;;;-1.60;1.00;;;;;;5028503;28;20432;-72
2022/12/16 03:23:46;;;;;;;21.93;11.23;;;-1.80;1.00;;;;;;5020409;28;20679;-71
2022/12/16 03:26:20;;;;;;;21.60;11.07;;;-1.80;1.00;;;;;;5029236;28;20907;-71
2022/12/16 03:29:02;;;;;;;28.10;12.37;;;-1.50;1.00;;;;;;5027711;28;20476;-70
2022/12/16 03:31:46;;;;;;;19.20;10.57;;;-1.90;1.00;;;;;;5028666;28;20416;-72
2022/12/16 03:34:39;;;;;;;24.13;11.40;;;-2.00;1.00;;;;;;5029916;28;20839;-71
2022/12/16 03:37:07;;;;;;;20.63;11.20;;;-2.00;1.00;;;;;;5023353;28;20965;-71
2022/12/16 03:39:38;;;;;;;24.50;11.40;;;-2.00;1.00;;;;;;5029570;28;20482;-72
2022/12/16 03:42:05;;;;;;;20.27;11.00;;;-2.00;1.00;;;;;;5027241;28;20560;-72
2022/12/16 03:44:32;;;;;;;20.23;11.27;;;-2.00;1.00;;;;;;5026245;28;20437;-71
2022/12/16 03:46:57;;;;;;;19.97;10.33;;;-2.10;1.00;;;;;;5025897;28;20506;-71
2022/12/16 03:49:23;;;;;;;23.03;11.00;;;-1.70;1.00;;;;;;5027227;28;20463;-70
2022/12/16 03:51:48;;;;;;;21.13;10.17;;;-1.90;1.00;;;;;;5027510;28;20718;-71
2022/12/16 03:54:14;;;;;;;18.23;10.50;;;-2.20;1.00;;;;;;5028489;28;20260;-73
2022/12/16 03:56:39;;;;;;;25.07;10.67;;;-2.20;1.00;;;;;;5027045;28;20209;-71
2022/12/16 03:59:05;;;;;;;21.47;10.93;;;-2.20;1.00;;;;;;5027474;28;20239;-70
2022/12/16 04:01:30;;;;;;;26.63;12.70;;;-2.20;1.00;;;;;;5028600;28;20592;-72
2022/12/16 04:03:56;;;;;;;19.93;11.37;;;-2.30;1.00;;;;;;5025324;28;20574;-71
2022/12/16 04:06:22;;;;;;;23.57;11.10;;;-1.90;1.00;;;;;;5022191;28;20309;-71
2022/12/16 04:08:47;;;;;;;22.80;10.87;;;-2.00;1.00;;;;;;5026820;28;20201;-71
2022/12/16 04:25:33;;;;;;;20.20;10.27;;;-2.60;1.00;;;;;;5028231;28;20439;-70
2022/12/16 04:27:59;;;;;;;21.13;10.60;;;-2.50;1.00;;;;;;5031246;28;20452;-70
2022/12/16 04:30:26;;;;;;;21.27;10.33;;;-2.60;1.00;;;;;;5039994;28;20444;-70
